Terminal Aerodrome Forecast
Issued by NWS

Home | Current Version | Previous Version | Text Only | Print | Product List | Glossary On
Versions: 1 2 3 4 5 6 7 8 9 10 11 12 13 14 15 16 17 18 19 20 21 22 23 24 25 26
000
FTUS45 KREV 240520
TAFTRK
TAF
KTRK 240520Z 2406/2506 VRB03KT P6SM SCT070 BKN140
     FM241400 19011G20KT P6SM VCSH SCT050 BKN100
     FM241900 20016G28KT 6SM -SHRASN SCT025 BKN035 OVC050
     FM250000 20015G25KT 2SM -SN BKN015 OVC030
     FM250400 20008KT 5SM -SHSN BKN020 OVC025=

USA.gov is the U.S. government's official web portal to all federal, state and local government web resources and services.